createdAt,value
2022-08-19T00:01:53.265Z,52.96
2022-08-19T00:04:25.408Z,53.12
2022-08-19T00:06:53.918Z,53.25
2022-08-19T00:09:24.139Z,53.30
2022-08-19T00:11:52.635Z,53.57
2022-08-19T00:14:21.755Z,53.25
2022-08-19T00:16:52.541Z,53.33
2022-08-19T00:19:19.943Z,52.96
2022-08-19T00:21:47.878Z,52.96
2022-08-19T00:24:16.397Z,53.02
2022-08-19T00:26:46.492Z,52.91
2022-08-19T00:29:18.694Z,53.11
2022-08-19T00:31:47.219Z,52.90
2022-08-19T00:34:16.842Z,52.34
2022-08-19T00:36:45.229Z,52.58
2022-08-19T00:39:13.739Z,52.21
2022-08-19T00:41:41.969Z,52.76
2022-08-19T00:44:13.680Z,52.69
2022-08-19T00:46:45.670Z,52.72
2022-08-19T00:49:30.307Z,52.55
2022-08-19T00:52:09.764Z,52.74
2022-08-19T00:54:40.065Z,52.38
2022-08-19T00:57:15.997Z,52.37
2022-08-19T01:00:00.365Z,53.10
2022-08-19T01:02:31.957Z,53.06
2022-08-19T01:05:02.452Z,52.40
2022-08-19T01:07:37.999Z,52.03
2022-08-19T01:10:11.212Z,52.22
2022-08-19T01:12:38.896Z,52.92
2022-08-19T01:15:10.616Z,52.67
2022-08-19T01:17:40.747Z,52.54
2022-08-19T01:20:14.544Z,52.70
2022-08-19T01:22:47.764Z,52.29
2022-08-19T01:25:17.325Z,52.39
2022-08-19T01:27:53.571Z,52.04
2022-08-19T01:30:27.346Z,51.88
2022-08-19T01:32:56.190Z,52.32
2022-08-19T01:35:25.998Z,52.36
2022-08-19T01:37:58.543Z,52.92
2022-08-19T01:40:31.716Z,52.99
2022-08-19T01:43:00.540Z,52.41
2022-08-19T01:45:31.029Z,52.79
2022-08-19T01:48:02.085Z,52.70
2022-08-19T01:50:31.376Z,53.24
2022-08-19T01:53:02.362Z,52.71
2022-08-19T01:55:41.327Z,53.14
2022-08-19T01:58:14.387Z,53.12
2022-08-19T02:00:43.215Z,52.97
2022-08-19T02:03:12.179Z,52.97
2022-08-19T02:05:40.413Z,53.01
2022-08-19T02:08:10.297Z,52.76
2022-08-19T02:10:42.362Z,52.76
2022-08-19T02:13:10.077Z,52.56
2022-08-19T02:15:38.649Z,53.00
2022-08-19T02:18:07.324Z,53.37
2022-08-19T02:20:34.921Z,53.49
2022-08-19T02:23:02.356Z,53.39
2022-08-19T02:25:31.230Z,53.45
2022-08-19T02:27:58.876Z,53.60
2022-08-19T02:30:26.480Z,53.43
2022-08-19T02:32:54.219Z,54.04
2022-08-19T02:35:22.292Z,53.57
2022-08-19T02:38:08.165Z,53.79
2022-08-19T02:40:37.200Z,52.98
2022-08-19T02:43:08.501Z,52.82
2022-08-19T02:45:40.552Z,52.98
2022-08-19T02:48:14.867Z,53.00
2022-08-19T02:50:56.366Z,53.27
2022-08-19T02:53:27.062Z,53.33
2022-08-19T02:55:56.338Z,53.22
2022-08-19T02:58:25.043Z,53.38
2022-08-19T03:00:56.118Z,53.90
2022-08-19T03:03:24.468Z,53.23
2022-08-19T03:05:57.187Z,53.55
2022-08-19T03:08:26.827Z,53.65
2022-08-19T03:10:55.733Z,53.17
2022-08-19T03:13:24.316Z,53.52
2022-08-19T03:15:51.810Z,53.69
2022-08-19T03:18:19.256Z,53.17
2022-08-19T03:20:50.021Z,53.09
2022-08-19T03:23:18.496Z,53.06
2022-08-19T03:26:02.793Z,52.49
2022-08-19T03:28:38.586Z,52.36
2022-08-19T03:31:43.936Z,52.21
2022-08-19T03:33:59.941Z,52.33
2022-08-19T03:36:28.653Z,51.30
2022-08-19T03:39:00.184Z,51.28
2022-08-19T03:41:34.292Z,51.55
2022-08-19T03:44:17.646Z,51.40
2022-08-19T03:46:47.512Z,51.51
2022-08-19T03:49:15.623Z,52.06
2022-08-19T03:51:47.099Z,51.88
2022-08-19T03:54:16.915Z,51.61
2022-08-19T03:56:46.814Z,51.80
2022-08-19T03:59:19.676Z,51.52
2022-08-19T04:01:47.163Z,51.24
2022-08-19T04:04:14.535Z,51.52
2022-08-19T04:06:42.157Z,52.13
2022-08-19T04:09:12.225Z,51.75
2022-08-19T04:11:44.805Z,51.38
2022-08-19T04:14:17.557Z,51.66
2022-08-19T04:16:46.127Z,51.43
2022-08-19T04:19:16.031Z,51.50
2022-08-19T04:21:46.094Z,50.94
2022-08-19T04:24:14.732Z,50.88
2022-08-19T04:26:42.677Z,51.65
2022-08-19T04:29:13.926Z,51.80
2022-08-19T04:31:46.201Z,51.51
2022-08-19T04:34:17.925Z,51.82
2022-08-19T04:36:46.655Z,52.19
2022-08-19T04:39:17.311Z,52.48
2022-08-19T04:42:04.088Z,52.12
2022-08-19T04:44:33.207Z,52.69
2022-08-19T04:47:11.300Z,52.62
2022-08-19T04:49:39.117Z,52.65
2022-08-19T04:52:06.570Z,52.57
2022-08-19T04:54:38.574Z,53.13
2022-08-19T04:57:10.696Z,52.99
2022-08-19T04:59:40.157Z,53.59
2022-08-19T05:02:10.514Z,53.34
2022-08-19T05:04:40.336Z,53.57
2022-08-19T05:07:09.247Z,53.75
2022-08-19T05:09:58.100Z,53.89
2022-08-19T05:12:28.980Z,53.49
2022-08-19T05:14:58.421Z,54.10
2022-08-19T05:17:31.320Z,53.83
2022-08-19T05:20:19.820Z,54.15
2022-08-19T05:22:49.006Z,53.74
2022-08-19T05:25:20.602Z,54.01
2022-08-19T05:27:49.258Z,53.64
2022-08-19T05:30:18.550Z,53.58
2022-08-19T05:32:49.087Z,53.72
2022-08-19T05:35:16.447Z,53.79
2022-08-19T05:37:43.802Z,53.66
2022-08-19T05:40:12.123Z,53.84
2022-08-19T05:42:39.799Z,54.15
2022-08-19T05:45:09.116Z,53.12
2022-08-19T05:47:42.108Z,53.03
2022-08-19T05:50:11.552Z,53.17
2022-08-19T05:52:45.846Z,53.19
2022-08-19T05:55:18.203Z,52.93
2022-08-19T05:57:45.497Z,52.80
2022-08-19T06:00:14.595Z,53.01
2022-08-19T06:02:42.469Z,53.57
2022-08-19T06:05:12.451Z,53.12
2022-08-19T06:07:40.903Z,53.13
2022-08-19T06:10:12.400Z,52.94
2022-08-19T06:12:40.454Z,53.37
2022-08-19T06:15:11.514Z,52.72
2022-08-19T06:17:39.258Z,52.08
2022-08-19T06:20:13.065Z,51.98
2022-08-19T06:22:42.852Z,51.94
2022-08-19T06:25:11.698Z,51.92
2022-08-19T06:27:58.598Z,51.15
2022-08-19T06:30:28.236Z,51.84
2022-08-19T06:32:55.552Z,51.61
2022-08-19T06:35:24.401Z,51.88
2022-08-19T06:37:51.901Z,51.42
2022-08-19T06:40:19.470Z,51.85
2022-08-19T06:42:54.532Z,51.20
2022-08-19T06:45:24.520Z,51.59
2022-08-19T06:47:56.803Z,51.40
2022-08-19T06:50:26.030Z,50.78
2022-08-19T06:52:53.705Z,50.96
2022-08-19T06:55:21.449Z,50.55
2022-08-19T06:57:49.112Z,50.27
2022-08-19T07:00:19.291Z,49.74
2022-08-19T07:02:52.148Z,49.86
2022-08-19T07:05:26.216Z,49.76
2022-08-19T07:07:53.554Z,49.96
2022-08-19T07:10:26.157Z,49.43
2022-08-19T07:12:53.611Z,49.00
2022-08-19T07:15:22.313Z,48.84
2022-08-19T07:17:52.731Z,48.89
2022-08-19T07:20:20.725Z,48.99
2022-08-19T07:22:49.530Z,48.92
2022-08-19T07:25:18.835Z,48.72
2022-08-19T07:27:48.716Z,48.13
2022-08-19T07:30:23.324Z,48.61
2022-08-19T07:32:53.982Z,47.90
2022-08-19T07:35:21.503Z,48.25
2022-08-19T07:37:50.367Z,47.44
2022-08-19T07:40:17.847Z,47.08
2022-08-19T07:42:45.496Z,46.04
2022-08-19T07:45:12.917Z,44.33
2022-08-19T07:47:50.120Z,43.54
2022-08-19T07:50:21.431Z,42.36
2022-08-19T07:52:51.051Z,40.95
2022-08-19T07:55:42.056Z,39.20
2022-08-19T07:58:13.189Z,37.98
2022-08-19T08:00:41.674Z,37.61
2022-08-19T08:03:09.694Z,36.23
2022-08-19T08:05:55.498Z,35.11
2022-08-19T08:08:44.369Z,33.68
2022-08-19T08:11:22.002Z,32.50
2022-08-19T08:14:00.521Z,30.66
2022-08-19T08:16:34.659Z,28.74
2022-08-19T08:19:02.254Z,29.44
2022-08-19T08:21:29.856Z,29.31
2022-08-19T08:26:31.031Z,30.25
2022-08-19T08:29:02.402Z,30.28
2022-08-19T08:31:41.797Z,30.92
2022-08-19T08:34:10.291Z,30.55
2022-08-19T08:36:42.615Z,30.12
2022-08-19T08:39:12.895Z,30.14
2022-08-19T08:41:51.814Z,30.51
2022-08-19T08:44:24.844Z,30.80
2022-08-19T08:46:59.106Z,30.42
2022-08-19T08:49:40.485Z,30.09
2022-08-19T08:52:14.707Z,29.78
2022-08-19T08:54:49.172Z,29.38
2022-08-19T08:57:33.729Z,28.06
2022-08-19T09:00:16.179Z,26.91
2022-08-19T09:02:44.489Z,25.83
2022-08-19T09:05:16.741Z,25.08
2022-08-19T09:07:57.059Z,24.24
2022-08-19T09:10:44.504Z,22.93
2022-08-19T09:13:37.661Z,21.66
2022-08-19T09:16:11.068Z,21.61
2022-08-19T09:18:44.500Z,20.53
2022-08-19T09:21:12.110Z,20.13
2022-08-19T09:23:39.914Z,20.40
2022-08-19T09:26:16.555Z,20.11
2022-08-19T09:28:48.284Z,20.79
2022-08-19T09:31:25.025Z,21.15
2022-08-19T09:33:57.903Z,21.46
2022-08-19T09:36:34.858Z,21.83
2022-08-19T09:39:04.517Z,22.51
2022-08-19T09:41:47.275Z,21.68
2022-08-19T09:44:15.110Z,21.51
2022-08-19T09:46:42.833Z,21.83
2022-08-19T09:49:10.495Z,21.46
2022-08-19T09:51:37.918Z,20.45
2022-08-19T09:54:07.141Z,20.05
2022-08-19T09:56:38.818Z,18.89
2022-08-19T09:59:13.051Z,18.26
2022-08-19T10:01:40.419Z,17.99
2022-08-19T10:04:20.267Z,17.72
2022-08-19T10:06:53.930Z,17.04
2022-08-19T10:09:33.848Z,16.02
2022-08-19T10:12:03.951Z,15.53
2022-08-19T10:14:33.196Z,14.63
2022-08-19T10:17:17.999Z,14.84
2022-08-19T10:19:55.248Z,14.36
2022-08-19T10:22:25.439Z,14.96
2022-08-19T10:24:53.542Z,14.31
2022-08-19T10:27:21.050Z,14.21
2022-08-19T10:29:49.917Z,14.85
2022-08-19T10:32:17.316Z,14.81
2022-08-19T10:34:48.597Z,14.64
2022-08-19T10:37:23.654Z,14.04
2022-08-19T10:39:56.251Z,13.92
2022-08-19T10:42:23.799Z,15.01
2022-08-19T10:44:52.614Z,15.64
2022-08-19T10:47:26.086Z,17.17
2022-08-19T10:50:34.357Z,18.30
2022-08-19T10:53:08.040Z,19.62
2022-08-19T10:55:56.368Z,20.80
2022-08-19T10:58:27.324Z,21.60
2022-08-19T11:00:59.317Z,22.63
2022-08-19T11:03:31.620Z,23.37
2022-08-19T11:06:01.036Z,23.87
2022-08-19T11:08:28.840Z,23.79
2022-08-19T11:11:01.615Z,23.90
2022-08-19T11:13:30.275Z,23.99
2022-08-19T11:16:05.316Z,23.66
2022-08-19T11:18:39.777Z,23.50
2022-08-19T11:21:10.527Z,22.65
2022-08-19T11:23:38.368Z,22.83
2022-08-19T11:26:06.131Z,23.01
2022-08-19T11:28:33.957Z,23.22
2022-08-19T11:31:04.348Z,22.96
2022-08-19T11:33:32.554Z,23.06
2022-08-19T11:36:01.703Z,23.60
2022-08-19T11:38:29.388Z,23.41
2022-08-19T11:40:58.585Z,23.92
2022-08-19T11:43:27.546Z,24.16
2022-08-19T11:45:55.334Z,24.28
2022-08-19T11:48:25.608Z,24.45
2022-08-19T11:50:57.567Z,24.63
2022-08-19T11:53:26.162Z,24.82
2022-08-19T11:55:56.808Z,24.75
2022-08-19T11:58:25.772Z,24.85
2022-08-19T12:00:54.002Z,24.38
2022-08-19T12:03:26.426Z,24.31
2022-08-19T12:05:54.669Z,24.22
2022-08-19T12:08:22.028Z,24.46
2022-08-19T12:10:49.427Z,24.20
2022-08-19T12:13:19.536Z,23.87
2022-08-19T12:15:48.488Z,23.62
2022-08-19T12:18:16.169Z,24.10
2022-08-19T12:20:46.744Z,24.29
2022-08-19T12:23:14.642Z,24.36
2022-08-19T12:25:51.100Z,23.88
2022-08-19T12:28:19.970Z,24.58
2022-08-19T12:30:48.029Z,24.72
2022-08-19T12:33:16.039Z,25.37
2022-08-19T12:35:48.000Z,25.65
2022-08-19T12:38:15.898Z,25.91
2022-08-19T12:40:47.857Z,25.69
2022-08-19T12:43:16.666Z,25.49
2022-08-19T12:45:44.581Z,25.66
2022-08-19T12:48:33.282Z,25.80
2022-08-19T12:51:09.424Z,25.44
2022-08-19T12:53:39.310Z,25.50
2022-08-19T12:56:12.162Z,25.92
2022-08-19T12:58:48.720Z,25.05
2022-08-19T13:01:21.924Z,24.61
2022-08-19T13:03:53.528Z,24.81
2022-08-19T13:06:22.545Z,24.86
2022-08-19T13:08:49.955Z,24.64
2022-08-19T13:11:20.208Z,24.54
2022-08-19T13:13:51.900Z,23.47
2022-08-19T13:16:21.263Z,23.48
2022-08-19T13:18:49.417Z,22.71
2022-08-19T13:21:17.065Z,21.25
2022-08-19T13:23:45.757Z,19.60
2022-08-19T13:26:14.696Z,19.84
2022-08-19T13:29:02.285Z,20.23
2022-08-19T13:31:51.999Z,20.75
2022-08-19T13:34:28.612Z,21.13
2022-08-19T13:36:59.166Z,21.25
2022-08-19T13:39:28.423Z,21.57
2022-08-19T13:41:56.027Z,21.58
2022-08-19T13:44:23.599Z,21.96
2022-08-19T13:46:53.900Z,22.28
2022-08-19T13:49:21.749Z,22.46
2022-08-19T13:51:49.363Z,22.74
2022-08-19T13:54:16.776Z,22.65
2022-08-19T13:56:47.019Z,22.81
2022-08-19T13:59:14.802Z,22.38
2022-08-19T14:01:42.823Z,22.34
2022-08-19T14:04:10.574Z,22.02
2022-08-19T14:06:37.975Z,21.66
2022-08-19T14:09:06.830Z,20.82
2022-08-19T14:11:34.337Z,20.52
2022-08-19T14:14:03.048Z,21.29
2022-08-19T14:16:31.444Z,21.31
2022-08-19T14:18:58.944Z,22.02
2022-08-19T14:21:26.950Z,21.69
2022-08-19T14:23:55.493Z,22.51
2022-08-19T14:26:23.962Z,23.15
2022-08-19T14:28:53.154Z,22.84
2022-08-19T14:31:28.967Z,23.26
2022-08-19T14:33:58.141Z,23.54
2022-08-19T14:36:25.456Z,24.25
2022-08-19T14:38:52.846Z,23.89
2022-08-19T14:41:24.556Z,24.77
2022-08-19T14:43:54.375Z,24.89
2022-08-19T14:46:28.244Z,24.73
2022-08-19T14:48:57.734Z,25.21
2022-08-19T14:51:28.207Z,25.04
2022-08-19T14:53:56.189Z,25.32
2022-08-19T14:56:27.163Z,25.33
2022-08-19T14:58:55.405Z,25.44
2022-08-19T15:01:24.570Z,25.15
2022-08-19T15:03:55.600Z,25.38
2022-08-19T15:06:24.149Z,25.70
2022-08-19T15:08:52.768Z,25.75
2022-08-19T15:11:23.649Z,25.71
2022-08-19T15:13:52.022Z,25.56
2022-08-19T15:16:20.483Z,25.87
2022-08-19T15:18:54.581Z,26.14
2022-08-19T15:21:26.967Z,26.02
2022-08-19T15:23:56.710Z,26.40
2022-08-19T15:26:26.136Z,26.51
2022-08-19T15:28:53.505Z,26.16
2022-08-19T15:31:25.621Z,26.36
2022-08-19T15:33:58.608Z,26.55
2022-08-19T15:36:27.182Z,26.62
2022-08-19T15:38:55.655Z,26.60
2022-08-19T15:41:31.272Z,27.07
2022-08-19T15:44:08.102Z,27.64
2022-08-19T15:46:38.139Z,27.87
2022-08-19T15:49:09.596Z,27.77
2022-08-19T15:51:39.240Z,27.98
2022-08-19T15:54:11.336Z,28.17
2022-08-19T15:57:05.652Z,28.12
2022-08-19T16:00:09.491Z,28.06
2022-08-19T16:02:57.522Z,28.09
2022-08-19T16:05:46.655Z,27.97
2022-08-19T16:08:15.511Z,28.05
2022-08-19T16:10:42.931Z,28.01
2022-08-19T16:13:11.002Z,28.20
2022-08-19T16:15:41.361Z,28.38
2022-08-19T16:18:08.683Z,28.46
2022-08-19T16:20:37.432Z,28.16
2022-08-19T16:23:05.212Z,28.30
2022-08-19T16:25:32.817Z,28.57
2022-08-19T16:28:07.334Z,28.28
2022-08-19T16:30:37.454Z,28.37
2022-08-19T16:33:05.451Z,27.45
2022-08-19T16:35:32.835Z,27.52
2022-08-19T16:38:02.676Z,27.22
2022-08-19T16:40:30.235Z,27.52
2022-08-19T16:42:57.776Z,27.34
2022-08-19T16:45:25.525Z,26.87
2022-08-19T16:47:52.891Z,27.11
2022-08-19T16:50:39.265Z,27.38
2022-08-19T16:53:11.519Z,27.17
2022-08-19T16:55:38.866Z,27.48
2022-08-19T16:58:06.126Z,27.48
2022-08-19T17:00:33.661Z,27.52
2022-08-19T17:03:07.371Z,27.11
2022-08-19T17:05:34.748Z,27.38
2022-08-19T17:08:02.218Z,27.29
2022-08-19T17:10:30.957Z,27.17
2022-08-19T17:12:58.295Z,27.37
2022-08-19T17:15:26.017Z,27.46
2022-08-19T17:17:53.534Z,27.71
2022-08-19T17:20:21.464Z,27.55
2022-08-19T17:22:48.754Z,27.53
2022-08-19T17:25:16.258Z,27.57
2022-08-19T17:27:44.998Z,27.89
2022-08-19T17:30:13.951Z,27.90
2022-08-19T17:32:42.246Z,27.81
2022-08-19T17:35:10.358Z,28.29
2022-08-19T17:37:38.227Z,28.28
2022-08-19T17:40:08.868Z,27.74
2022-08-19T17:42:36.802Z,28.04
2022-08-19T17:45:09.019Z,28.76
2022-08-19T17:47:37.616Z,28.67
2022-08-19T17:50:07.125Z,28.59
2022-08-19T17:52:35.574Z,28.82
2022-08-19T17:55:03.548Z,29.17
2022-08-19T17:57:30.949Z,28.99
2022-08-19T17:59:58.690Z,29.20
2022-08-19T18:02:27.950Z,28.93
2022-08-19T18:04:57.316Z,29.10
2022-08-19T18:07:24.596Z,29.04
2022-08-19T18:09:53.997Z,28.55
2022-08-19T18:12:29.217Z,28.68
2022-08-19T18:14:58.878Z,29.15
2022-08-19T18:17:28.059Z,29.74
2022-08-19T18:19:55.536Z,29.22
2022-08-19T18:22:28.341Z,29.57
2022-08-19T18:24:58.225Z,29.64
2022-08-19T18:27:27.657Z,30.01
2022-08-19T18:29:59.631Z,29.38
2022-08-19T18:32:34.640Z,30.17
2022-08-19T18:35:04.980Z,29.80
2022-08-19T18:37:32.840Z,29.43
2022-08-19T18:40:18.915Z,29.83
2022-08-19T18:43:05.363Z,30.37
2022-08-19T18:45:51.956Z,29.62
2022-08-19T18:48:39.158Z,29.63
2022-08-19T18:51:07.375Z,29.80
2022-08-19T18:53:38.661Z,29.75
2022-08-19T18:56:08.061Z,29.83
2022-08-19T18:58:38.078Z,30.30
2022-08-19T19:01:11.627Z,29.94
2022-08-19T19:03:45.747Z,30.06
2022-08-19T19:06:14.318Z,30.92
2022-08-19T19:08:41.778Z,30.44
2022-08-19T19:11:09.585Z,30.65
2022-08-19T19:13:39.902Z,30.83
2022-08-19T19:16:11.549Z,31.25
2022-08-19T19:18:40.726Z,31.29
2022-08-19T19:21:09.684Z,31.32
2022-08-19T19:23:40.749Z,32.02
2022-08-19T19:26:10.531Z,31.91
2022-08-19T19:28:45.739Z,31.68
2022-08-19T19:31:19.034Z,31.99
2022-08-19T19:33:47.841Z,32.00
2022-08-19T19:36:16.028Z,32.05
2022-08-19T19:38:48.310Z,32.50
2022-08-19T19:41:24.116Z,32.34
2022-08-19T19:44:09.917Z,32.51
2022-08-19T19:46:42.657Z,32.68
2022-08-19T19:49:12.988Z,32.60
2022-08-19T19:51:41.465Z,32.97
2022-08-19T19:54:18.673Z,32.72
2022-08-19T19:56:50.426Z,33.01
2022-08-19T19:59:18.210Z,33.10
2022-08-19T20:01:51.246Z,33.36
2022-08-19T20:04:23.327Z,33.64
2022-08-19T20:06:50.631Z,33.65
2022-08-19T20:09:19.934Z,33.94
2022-08-19T20:11:53.358Z,34.21
2022-08-19T20:14:24.564Z,34.27
2022-08-19T20:16:54.374Z,34.03
2022-08-19T20:19:26.973Z,34.39
2022-08-19T20:21:57.336Z,34.66
2022-08-19T20:24:29.919Z,34.99
2022-08-19T20:26:57.319Z,35.13
2022-08-19T20:29:38.863Z,35.02
2022-08-19T20:32:09.667Z,35.35
2022-08-19T20:34:39.262Z,35.35
2022-08-19T20:37:09.166Z,35.59
2022-08-19T20:39:37.497Z,35.35
2022-08-19T20:42:05.709Z,35.26
2022-08-19T20:44:33.193Z,35.72
2022-08-19T20:47:03.651Z,35.44
2022-08-19T20:49:32.115Z,35.51
2022-08-19T20:52:01.103Z,35.38
2022-08-19T20:54:28.628Z,35.73
2022-08-19T20:56:56.312Z,35.63
2022-08-19T20:59:25.893Z,35.50
2022-08-19T21:01:54.713Z,35.72
2022-08-19T21:04:22.584Z,35.72
2022-08-19T21:06:50.719Z,35.64
2022-08-19T21:09:19.421Z,35.66
2022-08-19T21:11:47.122Z,35.57
2022-08-19T21:14:14.793Z,35.36
2022-08-19T21:16:42.355Z,35.61
2022-08-19T21:19:09.848Z,35.39
2022-08-19T21:21:37.255Z,35.57
2022-08-19T21:24:05.219Z,35.66
2022-08-19T21:26:34.207Z,35.52
2022-08-19T21:29:01.607Z,35.71
2022-08-19T21:31:29.193Z,35.98
2022-08-19T21:33:56.584Z,35.92
2022-08-19T21:36:24.260Z,35.92
2022-08-19T21:38:51.674Z,36.04
2022-08-19T21:41:19.062Z,36.24
2022-08-19T21:43:48.103Z,35.99
2022-08-19T21:46:16.278Z,36.41
2022-08-19T21:48:43.734Z,36.42
2022-08-19T21:51:11.157Z,36.42
2022-08-19T21:53:38.799Z,36.46
2022-08-19T21:56:07.309Z,36.21
2022-08-19T21:58:38.656Z,36.38
2022-08-19T22:01:08.090Z,36.26
2022-08-19T22:03:37.660Z,36.30
2022-08-19T22:06:05.756Z,36.37
2022-08-19T22:08:33.206Z,36.40
2022-08-19T22:11:01.332Z,36.33
2022-08-19T22:13:31.058Z,36.37
2022-08-19T22:15:58.432Z,36.39
2022-08-19T22:18:28.162Z,36.38
2022-08-19T22:20:56.694Z,36.31
2022-08-19T22:23:24.115Z,36.06
2022-08-19T22:25:51.454Z,36.36
2022-08-19T22:28:28.190Z,36.31
2022-08-19T22:30:56.226Z,36.83
2022-08-19T22:33:25.736Z,36.59
2022-08-19T22:35:54.650Z,36.42
2022-08-19T22:38:22.997Z,36.90
2022-08-19T22:40:52.893Z,37.14
2022-08-19T22:43:24.652Z,37.33
2022-08-19T22:45:54.779Z,37.19
2022-08-19T22:48:25.737Z,37.25
2022-08-19T22:51:18.453Z,37.34
2022-08-19T22:53:47.586Z,37.40
2022-08-19T22:56:18.493Z,37.59
2022-08-19T22:58:50.259Z,37.58
2022-08-19T23:01:27.623Z,38.05
2022-08-19T23:03:59.818Z,38.12
2022-08-19T23:06:33.118Z,38.57
2022-08-19T23:09:04.755Z,38.31
2022-08-19T23:11:35.627Z,38.24
2022-08-19T23:14:06.642Z,38.50
2022-08-19T23:16:36.254Z,38.07
2022-08-19T23:19:04.202Z,38.29
2022-08-19T23:21:35.302Z,38.17
2022-08-19T23:24:03.250Z,37.89
2022-08-19T23:26:35.153Z,37.87
2022-08-19T23:29:23.219Z,38.27
2022-08-19T23:31:50.810Z,38.14
2022-08-19T23:34:18.279Z,38.00
2022-08-19T23:36:48.409Z,37.82
2022-08-19T23:39:15.738Z,38.50
2022-08-19T23:41:43.190Z,38.19
2022-08-19T23:44:14.510Z,38.64
2022-08-19T23:46:54.568Z,38.75
2022-08-19T23:49:25.023Z,38.08
2022-08-19T23:51:55.573Z,37.78
2022-08-19T23:54:34.279Z,37.66
2022-08-19T23:57:13.513Z,37.85
2022-08-19T23:59:45.428Z,37.59
